sensor_id;sensor_type;location;lat;lon;timestamp;pressure;altitude;pressure_sealevel;temperature;humidity
43745;BME280;29359;53.048;8.732;2022-12-18T00:00:29;103092.28;;;-8.14;83.20
43745;BME280;29359;53.048;8.732;2022-12-18T00:02:31;103084.34;;;-8.17;83.39
43745;BME280;29359;53.048;8.732;2022-12-18T00:04:33;103090.25;;;-8.18;82.87
43745;BME280;29359;53.048;8.732;2022-12-18T00:06:35;103094.34;;;-8.20;83.32
43745;BME280;29359;53.048;8.732;2022-12-18T00:08:37;103082.31;;;-8.21;84.04
43745;BME280;29359;53.048;8.732;2022-12-18T00:10:38;103085.63;;;-8.22;83.02
43745;BME280;29359;53.048;8.732;2022-12-18T00:12:40;103082.03;;;-8.24;84.06
43745;BME280;29359;53.048;8.732;2022-12-18T00:14:44;103089.72;;;-8.24;84.13
43745;BME280;29359;53.048;8.732;2022-12-18T00:16:46;103087.03;;;-8.26;83.71
43745;BME280;29359;53.048;8.732;2022-12-18T00:18:49;103087.91;;;-8.25;83.63
43745;BME280;29359;53.048;8.732;2022-12-18T00:20:51;103075.09;;;-8.25;83.31
43745;BME280;29359;53.048;8.732;2022-12-18T00:22:53;103083.84;;;-8.23;83.37
43745;BME280;29359;53.048;8.732;2022-12-18T00:24:54;103083.84;;;-8.23;83.24
43745;BME280;29359;53.048;8.732;2022-12-18T00:26:56;103080.50;;;-8.22;84.19
43745;BME280;29359;53.048;8.732;2022-12-18T00:29:00;103085.78;;;-8.20;83.42
43745;BME280;29359;53.048;8.732;2022-12-18T00:31:04;103084.09;;;-8.20;83.84
43745;BME280;29359;53.048;8.732;2022-12-18T00:33:06;103089.22;;;-8.20;83.59
43745;BME280;29359;53.048;8.732;2022-12-18T00:35:08;103087.69;;;-8.18;82.97
43745;BME280;29359;53.048;8.732;2022-12-18T00:37:09;103084.09;;;-8.20;83.89
43745;BME280;29359;53.048;8.732;2022-12-18T00:39:17;103084.88;;;-8.21;83.91
43745;BME280;29359;53.048;8.732;2022-12-18T00:41:18;103090.75;;;-8.22;83.62
43745;BME280;29359;53.048;8.732;2022-12-18T00:43:39;103075.25;;;-8.24;83.23
43745;BME280;29359;53.048;8.732;2022-12-18T00:45:41;103075.38;;;-8.22;83.53
43745;BME280;29359;53.048;8.732;2022-12-18T00:47:43;103073.84;;;-8.20;84.57
43745;BME280;29359;53.048;8.732;2022-12-18T00:49:44;103088.47;;;-8.19;84.53
43745;BME280;29359;53.048;8.732;2022-12-18T00:51:46;103079.88;;;-8.19;83.41
43745;BME280;29359;53.048;8.732;2022-12-18T00:53:47;103073.22;;;-8.17;83.08
43745;BME280;29359;53.048;8.732;2022-12-18T00:55:49;103082.56;;;-8.18;83.88
43745;BME280;29359;53.048;8.732;2022-12-18T00:57:51;103077.44;;;-8.18;83.93
43745;BME280;29359;53.048;8.732;2022-12-18T00:59:53;103082.56;;;-8.18;83.23
43745;BME280;29359;53.048;8.732;2022-12-18T01:01:54;103078.97;;;-8.20;82.97
43745;BME280;29359;53.048;8.732;2022-12-18T01:04:01;103077.19;;;-8.21;83.13
43745;BME280;29359;53.048;8.732;2022-12-18T01:06:10;103084.88;;;-8.21;82.61
43745;BME280;29359;53.048;8.732;2022-12-18T01:08:12;103094.22;;;-8.21;82.91
43745;BME280;29359;53.048;8.732;2022-12-18T01:10:14;103095.88;;;-8.22;82.50
43745;BME280;29359;53.048;8.732;2022-12-18T01:12:16;103097.38;;;-8.24;82.02
43745;BME280;29359;53.048;8.732;2022-12-18T01:14:17;103099.81;;;-8.26;82.61
43745;BME280;29359;53.048;8.732;2022-12-18T01:16:19;103108.16;;;-8.28;81.90
43745;BME280;29359;53.048;8.732;2022-12-18T01:18:20;103113.78;;;-8.32;82.60
43745;BME280;29359;53.048;8.732;2022-12-18T01:20:22;103104.22;;;-8.35;82.79
43745;BME280;29359;53.048;8.732;2022-12-18T01:22:23;103114.34;;;-8.36;82.01
43745;BME280;29359;53.048;8.732;2022-12-18T01:24:25;103115.09;;;-8.37;82.34
43745;BME280;29359;53.048;8.732;2022-12-18T01:26:26;103115.09;;;-8.37;82.10
43745;BME280;29359;53.048;8.732;2022-12-18T01:28:30;103115.88;;;-8.38;82.35
43745;BME280;29359;53.048;8.732;2022-12-18T01:30:32;103113.06;;;-8.41;82.17
43745;BME280;29359;53.048;8.732;2022-12-18T01:32:33;103114.47;;;-8.45;83.21
43745;BME280;29359;53.048;8.732;2022-12-18T01:34:36;103121.00;;;-8.48;82.73
43745;BME280;29359;53.048;8.732;2022-12-18T01:36:38;103116.50;;;-8.51;83.46
43745;BME280;29359;53.048;8.732;2022-12-18T01:38:43;103115.47;;;-8.53;82.52
43745;BME280;29359;53.048;8.732;2022-12-18T01:40:44;103117.91;;;-8.54;83.62
43745;BME280;29359;53.048;8.732;2022-12-18T01:42:51;103114.44;;;-8.55;82.08
43745;BME280;29359;53.048;8.732;2022-12-18T01:46:54;103120.22;;;-8.58;83.12
43745;BME280;29359;53.048;8.732;2022-12-18T01:48:57;103124.31;;;-8.60;83.38
43745;BME280;29359;53.048;8.732;2022-12-18T01:51:00;103128.41;;;-8.62;83.40
43745;BME280;29359;53.048;8.732;2022-12-18T01:55:07;103127.84;;;-8.68;83.17
43745;BME280;29359;53.048;8.732;2022-12-18T01:57:10;103119.13;;;-8.70;83.36
43745;BME280;29359;53.048;8.732;2022-12-18T01:59:12;103123.34;;;-8.70;83.37
43745;BME280;29359;53.048;8.732;2022-12-18T02:01:14;103116.31;;;-8.73;83.01
43745;BME280;29359;53.048;8.732;2022-12-18T02:03:16;103118.88;;;-8.73;83.09
43745;BME280;29359;53.048;8.732;2022-12-18T02:05:25;103111.31;;;-8.71;82.93
43745;BME280;29359;53.048;8.732;2022-12-18T02:09:46;103113.13;;;-8.70;82.72
43745;BME280;29359;53.048;8.732;2022-12-18T02:14:09;103118.25;;;-8.70;83.38
43745;BME280;29359;53.048;8.732;2022-12-18T02:18:43;103122.97;;;-8.75;82.62
43745;BME280;29359;53.048;8.732;2022-12-18T02:21:22;103120.41;;;-8.75;83.10
43745;BME280;29359;53.048;8.732;2022-12-18T02:23:42;103121.94;;;-8.77;82.49
43745;BME280;29359;53.048;8.732;2022-12-18T02:26:04;103119.25;;;-8.78;82.56
43745;BME280;29359;53.048;8.732;2022-12-18T02:28:12;103108.88;;;-8.80;83.20
43745;BME280;29359;53.048;8.732;2022-12-18T02:30:15;103111.44;;;-8.80;82.39
43745;BME280;29359;53.048;8.732;2022-12-18T02:32:21;103101.19;;;-8.80;82.80
43745;BME280;29359;53.048;8.732;2022-12-18T02:34:29;103098.38;;;-8.83;81.77
43745;BME280;29359;53.048;8.732;2022-12-18T02:36:33;103094.78;;;-8.85;81.77
43745;BME280;29359;53.048;8.732;2022-12-18T02:38:37;103105.03;;;-8.85;82.78
43745;BME280;29359;53.048;8.732;2022-12-18T02:40:40;103106.69;;;-8.85;81.77
43745;BME280;29359;53.048;8.732;2022-12-18T02:42:43;103112.44;;;-8.88;83.02
43745;BME280;29359;53.048;8.732;2022-12-18T02:44:47;103101.19;;;-8.90;82.58
43745;BME280;29359;53.048;8.732;2022-12-18T02:46:51;103108.59;;;-8.93;82.86
43745;BME280;29359;53.048;8.732;2022-12-18T02:48:57;103111.78;;;-8.96;82.60
43745;BME280;29359;53.048;8.732;2022-12-18T02:51:26;103106.41;;;-8.99;81.83
43745;BME280;29359;53.048;8.732;2022-12-18T02:53:36;103109.59;;;-9.01;82.00
43745;BME280;29359;53.048;8.732;2022-12-18T02:58:27;103101.66;;;-9.04;82.98
43745;BME280;29359;53.048;8.732;2022-12-18T03:02:53;103117.13;;;-9.03;82.26
43745;BME280;29359;53.048;8.732;2022-12-18T03:07:19;103118.16;;;-9.01;83.22
43745;BME280;29359;53.048;8.732;2022-12-18T03:09:30;103123.28;;;-9.01;81.84
43745;BME280;29359;53.048;8.732;2022-12-18T03:11:37;103112.91;;;-9.02;82.09
43745;BME280;29359;53.048;8.732;2022-12-18T03:14:00;103111.88;;;-9.04;83.11
43745;BME280;29359;53.048;8.732;2022-12-18T03:16:05;103107.66;;;-9.04;82.83
43745;BME280;29359;53.048;8.732;2022-12-18T03:18:12;103108.31;;;-9.06;81.72
43745;BME280;29359;53.048;8.732;2022-12-18T03:20:17;103121.72;;;-9.09;82.09
43745;BME280;29359;53.048;8.732;2022-12-18T03:22:21;103118.28;;;-9.09;82.09
43745;BME280;29359;53.048;8.732;2022-12-18T03:24:26;103120.84;;;-9.09;81.72
43745;BME280;29359;53.048;8.732;2022-12-18T03:26:29;103125.94;;;-9.09;82.64
43745;BME280;29359;53.048;8.732;2022-12-18T03:28:34;103126.84;;;-9.09;81.64
43745;BME280;29359;53.048;8.732;2022-12-18T03:30:39;103119.03;;;-9.10;81.83
43745;BME280;29359;53.048;8.732;2022-12-18T03:32:47;103107.88;;;-9.11;82.60
43745;BME280;29359;53.048;8.732;2022-12-18T03:34:51;103119.63;;;-9.13;82.86
43745;BME280;29359;53.048;8.732;2022-12-18T03:36:54;103123.84;;;-9.13;83.00
43745;BME280;29359;53.048;8.732;2022-12-18T03:38:59;103120.41;;;-9.14;82.12
43745;BME280;29359;53.048;8.732;2022-12-18T03:43:20;103100.19;;;-9.11;82.75
43745;BME280;29359;53.048;8.732;2022-12-18T03:45:32;103105.47;;;-9.09;81.64
43745;BME280;29359;53.048;8.732;2022-12-18T03:47:53;103120.84;;;-9.09;81.95
43745;BME280;29359;53.048;8.732;2022-12-18T03:55:11;103129.41;;;-9.09;81.55
43745;BME280;29359;53.048;8.732;2022-12-18T03:57:16;103127.75;;;-9.08;81.61
43745;BME280;29359;53.048;8.732;2022-12-18T03:59:19;103126.84;;;-9.09;82.22
43745;BME280;29359;53.048;8.732;2022-12-18T04:01:26;103124.16;;;-9.10;82.22
43745;BME280;29359;53.048;8.732;2022-12-18T04:03:31;103119.63;;;-9.13;82.59
43745;BME280;29359;53.048;8.732;2022-12-18T04:05:34;103117.97;;;-9.12;81.64
43745;BME280;29359;53.048;8.732;2022-12-18T04:07:38;103119.75;;;-9.11;82.41
43745;BME280;29359;53.048;8.732;2022-12-18T04:09:41;103101.84;;;-9.11;82.44
43745;BME280;29359;53.048;8.732;2022-12-18T04:11:43;103106.06;;;-9.12;81.73
43745;BME280;29359;53.048;8.732;2022-12-18T04:13:47;103101.59;;;-9.14;82.44
43745;BME280;29359;53.048;8.732;2022-12-18T04:15:48;103109.13;;;-9.16;82.05
43745;BME280;29359;53.048;8.732;2022-12-18T04:17:50;103095.56;;;-9.15;82.68
43745;BME280;29359;53.048;8.732;2022-12-18T04:19:51;103095.06;;;-9.11;82.15
43745;BME280;29359;53.048;8.732;2022-12-18T04:21:53;103091.03;;;-9.09;81.97
43745;BME280;29359;53.048;8.732;2022-12-18T04:23:55;103085.28;;;-9.06;82.09
43745;BME280;29359;53.048;8.732;2022-12-18T04:25:56;103088.59;;;-9.07;81.25
43745;BME280;29359;53.048;8.732;2022-12-18T04:27:58;103105.59;;;-9.08;81.14
43745;BME280;29359;53.048;8.732;2022-12-18T04:29:59;103107.13;;;-9.10;81.37
43745;BME280;29359;53.048;8.732;2022-12-18T04:32:01;103103.50;;;-9.12;82.71
43745;BME280;29359;53.048;8.732;2022-12-18T04:34:03;103107.59;;;-9.14;82.79
43745;BME280;29359;53.048;8.732;2022-12-18T04:36:05;103101.72;;;-9.13;83.43
43745;BME280;29359;53.048;8.732;2022-12-18T04:38:07;103099.28;;;-9.11;82.85
43745;BME280;29359;53.048;8.732;2022-12-18T04:40:10;103108.16;;;-9.08;81.93
43745;BME280;29359;53.048;8.732;2022-12-18T04:42:11;103105.59;;;-9.08;81.67
43745;BME280;29359;53.048;8.732;2022-12-18T04:44:13;103111.50;;;-9.09;82.05
43745;BME280;29359;53.048;8.732;2022-12-18T04:46:15;103117.50;;;-9.08;81.77
43745;BME280;29359;53.048;8.732;2022-12-18T04:48:16;103118.41;;;-9.08;83.03
43745;BME280;29359;53.048;8.732;2022-12-18T04:50:18;103109.69;;;-9.10;81.67
43745;BME280;29359;53.048;8.732;2022-12-18T04:52:19;103114.81;;;-9.10;81.64
43745;BME280;29359;53.048;8.732;2022-12-18T04:54:25;103116.47;;;-9.10;83.10
43745;BME280;29359;53.048;8.732;2022-12-18T04:56:26;103114.66;;;-9.11;82.11
43745;BME280;29359;53.048;8.732;2022-12-18T04:58:28;103117.22;;;-9.11;81.77
43745;BME280;29359;53.048;8.732;2022-12-18T05:00:29;103116.03;;;-9.15;82.81
43745;BME280;29359;53.048;8.732;2022-12-18T05:02:31;103117.69;;;-9.15;82.43
43745;BME280;29359;53.048;8.732;2022-12-18T05:04:33;103118.59;;;-9.15;81.89
43745;BME280;29359;53.048;8.732;2022-12-18T05:06:34;103125.25;;;-9.17;82.75
43745;BME280;29359;53.048;8.732;2022-12-18T05:08:36;103130.34;;;-9.17;82.67
43745;BME280;29359;53.048;8.732;2022-12-18T05:10:38;103126.91;;;-9.18;82.95
43745;BME280;29359;53.048;8.732;2022-12-18T05:12:39;103126.00;;;-9.18;82.72
43745;BME280;29359;53.048;8.732;2022-12-18T05:14:59;103138.78;;;-9.18;82.08
43745;BME280;29359;53.048;8.732;2022-12-18T05:17:01;103131.25;;;-9.16;82.43
43745;BME280;29359;53.048;8.732;2022-12-18T05:19:02;103140.72;;;-9.15;81.81
43745;BME280;29359;53.048;8.732;2022-12-18T05:21:04;103142.38;;;-9.16;82.10
43745;BME280;29359;53.048;8.732;2022-12-18T05:23:06;103131.25;;;-9.16;82.63
43745;BME280;29359;53.048;8.732;2022-12-18T05:25:08;103132.91;;;-9.17;82.36
43745;BME280;29359;53.048;8.732;2022-12-18T05:27:09;103140.47;;;-9.19;82.41
43745;BME280;29359;53.048;8.732;2022-12-18T05:29:11;103143.03;;;-9.19;82.86
43745;BME280;29359;53.048;8.732;2022-12-18T05:31:14;103149.03;;;-9.18;82.37
43745;BME280;29359;53.048;8.732;2022-12-18T05:33:17;103148.28;;;-9.17;81.89
43745;BME280;29359;53.048;8.732;2022-12-18T05:35:18;103144.69;;;-9.19;83.04
43745;BME280;29359;53.048;8.732;2022-12-18T05:37:20;103154.78;;;-9.21;81.68
43745;BME280;29359;53.048;8.732;2022-12-18T05:39:22;103155.41;;;-9.23;81.75
43745;BME280;29359;53.048;8.732;2022-12-18T05:41:23;103161.41;;;-9.23;82.86
43745;BME280;29359;53.048;8.732;2022-12-18T05:43:25;103157.97;;;-9.23;83.16
43745;BME280;29359;53.048;8.732;2022-12-18T05:45:27;103159.63;;;-9.24;83.34
43745;BME280;29359;53.048;8.732;2022-12-18T05:47:29;103155.28;;;-9.25;82.66
43745;BME280;29359;53.048;8.732;2022-12-18T05:49:30;103156.03;;;-9.26;82.74
43745;BME280;29359;53.048;8.732;2022-12-18T05:51:32;103151.53;;;-9.28;83.20
43745;BME280;29359;53.048;8.732;2022-12-18T05:53:33;103147.97;;;-9.30;82.50
43745;BME280;29359;53.048;8.732;2022-12-18T05:55:37;103142.84;;;-9.30;81.92
43745;BME280;29359;53.048;8.732;2022-12-18T05:57:38;103143.59;;;-9.31;82.73
43745;BME280;29359;53.048;8.732;2022-12-18T05:59:40;103145.25;;;-9.32;82.31
43745;BME280;29359;53.048;8.732;2022-12-18T06:01:41;103137.59;;;-9.32;82.96
43745;BME280;29359;53.048;8.732;2022-12-18T06:03:44;103142.72;;;-9.32;82.64
43745;BME280;29359;53.048;8.732;2022-12-18T06:05:47;103145.25;;;-9.32;82.95
43745;BME280;29359;53.048;8.732;2022-12-18T06:07:49;103147.81;;;-9.32;82.56
43745;BME280;29359;53.048;8.732;2022-12-18T06:09:50;103151.16;;;-9.33;82.98
43745;BME280;29359;53.048;8.732;2022-12-18T06:11:52;103149.34;;;-9.34;82.66
43745;BME280;29359;53.048;8.732;2022-12-18T06:13:55;103158.81;;;-9.33;81.88
43745;BME280;29359;53.048;8.732;2022-12-18T06:16:02;103163.16;;;-9.32;81.58
43745;BME280;29359;53.048;8.732;2022-12-18T06:18:04;103163.16;;;-9.32;81.91
43745;BME280;29359;53.048;8.732;2022-12-18T06:20:06;103163.94;;;-9.33;82.48
43745;BME280;29359;53.048;8.732;2022-12-18T06:22:08;103159.56;;;-9.34;81.94
43745;BME280;29359;53.048;8.732;2022-12-18T06:24:09;103162.13;;;-9.34;81.96
43745;BME280;29359;53.048;8.732;2022-12-18T06:26:12;103159.44;;;-9.35;81.72
43745;BME280;29359;53.048;8.732;2022-12-18T06:28:13;103162.13;;;-9.34;82.09
43745;BME280;29359;53.048;8.732;2022-12-18T06:30:15;103160.34;;;-9.35;81.82
43745;BME280;29359;53.048;8.732;2022-12-18T06:32:17;103166.50;;;-9.33;81.23
43745;BME280;29359;53.048;8.732;2022-12-18T06:34:18;103158.69;;;-9.34;81.07
43745;BME280;29359;53.048;8.732;2022-12-18T06:36:20;103156.88;;;-9.35;81.25
43745;BME280;29359;53.048;8.732;2022-12-18T06:38:22;103157.78;;;-9.35;81.59
43745;BME280;29359;53.048;8.732;2022-12-18T06:40:23;103157.50;;;-9.38;81.57
43745;BME280;29359;53.048;8.732;2022-12-18T06:42:25;103154.94;;;-9.38;81.60
43745;BME280;29359;53.048;8.732;2022-12-18T06:44:26;103163.38;;;-9.39;82.46
43745;BME280;29359;53.048;8.732;2022-12-18T06:46:28;103158.28;;;-9.39;81.78
43745;BME280;29359;53.048;8.732;2022-12-18T06:48:30;103166.84;;;-9.38;81.55
43745;BME280;29359;53.048;8.732;2022-12-18T06:50:31;103166.84;;;-9.38;81.23
43745;BME280;29359;53.048;8.732;2022-12-18T06:52:33;103172.72;;;-9.39;81.98
43745;BME280;29359;53.048;8.732;2022-12-18T06:54:35;103174.25;;;-9.41;82.33
43745;BME280;29359;53.048;8.732;2022-12-18T06:56:36;103181.91;;;-9.41;81.98
43745;BME280;29359;53.048;8.732;2022-12-18T06:58:38;103181.91;;;-9.41;81.81
43745;BME280;29359;53.048;8.732;2022-12-18T07:00:40;103178.59;;;-9.40;82.63
43745;BME280;29359;53.048;8.732;2022-12-18T07:02:42;103187.16;;;-9.40;81.25
43745;BME280;29359;53.048;8.732;2022-12-18T07:04:44;103183.72;;;-9.40;81.88
43745;BME280;29359;53.048;8.732;2022-12-18T07:06:45;103182.81;;;-9.41;82.20
43745;BME280;29359;53.048;8.732;2022-12-18T07:08:47;103188.06;;;-9.39;82.67
43745;BME280;29359;53.048;8.732;2022-12-18T07:10:49;103189.84;;;-9.38;81.52
43745;BME280;29359;53.048;8.732;2022-12-18T07:12:56;103188.97;;;-9.39;82.65
43745;BME280;29359;53.048;8.732;2022-12-18T07:14:57;103195.88;;;-9.38;82.52
43745;BME280;29359;53.048;8.732;2022-12-18T07:16:59;103198.44;;;-9.38;81.93
43745;BME280;29359;53.048;8.732;2022-12-18T07:19:00;103194.34;;;-9.36;82.35
43745;BME280;29359;53.048;8.732;2022-12-18T07:21:04;103199.47;;;-9.36;81.55
43745;BME280;29359;53.048;8.732;2022-12-18T07:23:06;103200.50;;;-9.34;82.21
43745;BME280;29359;53.048;8.732;2022-12-18T07:25:07;103204.72;;;-9.34;82.36
43745;BME280;29359;53.048;8.732;2022-12-18T07:27:09;103200.50;;;-9.34;82.13
43745;BME280;29359;53.048;8.732;2022-12-18T07:29:11;103198.06;;;-9.32;82.16
43745;BME280;29359;53.048;8.732;2022-12-18T07:31:15;103198.06;;;-9.32;83.43
43745;BME280;29359;53.048;8.732;2022-12-18T07:33:17;103199.75;;;-9.33;82.61
43745;BME280;29359;53.048;8.732;2022-12-18T07:35:18;103204.09;;;-9.32;82.48
43745;BME280;29359;53.048;8.732;2022-12-18T07:37:25;103199.88;;;-9.31;83.31
43745;BME280;29359;53.048;8.732;2022-12-18T07:39:27;103200.78;;;-9.31;82.63
43745;BME280;29359;53.048;8.732;2022-12-18T07:41:28;103196.56;;;-9.30;82.28
43745;BME280;29359;53.048;8.732;2022-12-18T07:43:30;103186.31;;;-9.30;83.75
43745;BME280;29359;53.048;8.732;2022-12-18T07:45:31;103185.56;;;-9.29;82.40
43745;BME280;29359;53.048;8.732;2022-12-18T07:47:36;103183.13;;;-9.28;83.53
43745;BME280;29359;53.048;8.732;2022-12-18T07:49:37;103183.13;;;-9.28;83.34
43745;BME280;29359;53.048;8.732;2022-12-18T07:51:39;103183.28;;;-9.26;83.67
43745;BME280;29359;53.048;8.732;2022-12-18T07:53:40;103186.88;;;-9.24;84.17
43745;BME280;29359;53.048;8.732;2022-12-18T07:55:43;103183.53;;;-9.23;83.39
43745;BME280;29359;53.048;8.732;2022-12-18T07:58:04;103188.94;;;-9.20;84.05
43745;BME280;29359;53.048;8.732;2022-12-18T08:00:06;103177.31;;;-9.16;84.10
43745;BME280;29359;53.048;8.732;2022-12-18T08:02:08;103175.03;;;-9.13;84.46
43745;BME280;29359;53.048;8.732;2022-12-18T08:04:10;103179.38;;;-9.12;84.50
43745;BME280;29359;53.048;8.732;2022-12-18T08:06:11;103175.31;;;-9.10;83.97
43745;BME280;29359;53.048;8.732;2022-12-18T08:08:13;103173.03;;;-9.07;83.81
43745;BME280;29359;53.048;8.732;2022-12-18T08:10:15;103167.41;;;-9.03;84.22
43745;BME280;29359;53.048;8.732;2022-12-18T08:12:16;103160.78;;;-9.01;84.45
43745;BME280;29359;53.048;8.732;2022-12-18T08:14:18;103166.28;;;-8.97;85.03
43745;BME280;29359;53.048;8.732;2022-12-18T08:16:20;103170.00;;;-8.93;84.35
43745;BME280;29359;53.048;8.732;2022-12-18T08:18:22;103172.97;;;-8.89;85.18
43745;BME280;29359;53.048;8.732;2022-12-18T08:20:24;103169.91;;;-8.84;85.81
43745;BME280;29359;53.048;8.732;2022-12-18T08:22:25;103177.09;;;-8.80;85.63
43745;BME280;29359;53.048;8.732;2022-12-18T08:24:27;103179.91;;;-8.77;86.10
43745;BME280;29359;53.048;8.732;2022-12-18T08:26:30;103178.53;;;-8.74;85.22
43745;BME280;29359;53.048;8.732;2022-12-18T08:28:32;103180.59;;;-8.70;85.91
43745;BME280;29359;53.048;8.732;2022-12-18T08:30:35;103175.75;;;-8.67;85.97
43745;BME280;29359;53.048;8.732;2022-12-18T08:32:37;103170.13;;;-8.63;86.09
43745;BME280;29359;53.048;8.732;2022-12-18T08:34:39;103170.41;;;-8.60;86.86
43745;BME280;29359;53.048;8.732;2022-12-18T08:36:40;103160.41;;;-8.57;86.10
43745;BME280;29359;53.048;8.732;2022-12-18T08:38:42;103170.16;;;-8.52;86.36
43745;BME280;29359;53.048;8.732;2022-12-18T08:40:43;103171.31;;;-8.49;85.70
43745;BME280;29359;53.048;8.732;2022-12-18T08:42:45;103174.13;;;-8.46;86.76
43745;BME280;29359;53.048;8.732;2022-12-18T08:45:05;103174.53;;;-8.41;85.91
43745;BME280;29359;53.048;8.732;2022-12-18T08:47:07;103168.91;;;-8.37;86.31
43745;BME280;29359;53.048;8.732;2022-12-18T08:49:10;103162.59;;;-8.31;86.00
43745;BME280;29359;53.048;8.732;2022-12-18T08:51:12;103150.94;;;-8.27;85.89
43745;BME280;29359;53.048;8.732;2022-12-18T08:53:14;103155.06;;;-8.19;85.66
43745;BME280;29359;53.048;8.732;2022-12-18T08:55:15;103164.81;;;-8.15;86.16
43745;BME280;29359;53.048;8.732;2022-12-18T08:57:17;103162.91;;;-8.07;86.87
43745;BME280;29359;53.048;8.732;2022-12-18T08:59:19;103163.41;;;-8.01;86.70
43745;BME280;29359;53.048;8.732;2022-12-18T09:01:21;103153.53;;;-7.97;87.44
43745;BME280;29359;53.048;8.732;2022-12-18T09:03:23;103148.78;;;-7.92;86.58
43745;BME280;29359;53.048;8.732;2022-12-18T09:05:24;103138.28;;;-7.85;87.68
43745;BME280;29359;53.048;8.732;2022-12-18T09:07:26;103139.56;;;-7.80;86.97
43745;BME280;29359;53.048;8.732;2022-12-18T09:09:27;103147.78;;;-7.74;87.93
43745;BME280;29359;53.048;8.732;2022-12-18T09:11:30;103141.47;;;-7.67;87.93
43745;BME280;29359;53.048;8.732;2022-12-18T09:13:31;103146.22;;;-7.62;87.48
43745;BME280;29359;53.048;8.732;2022-12-18T09:15:33;103154.53;;;-7.54;88.25
43745;BME280;29359;53.048;8.732;2022-12-18T09:17:34;103161.94;;;-7.47;87.94
43745;BME280;29359;53.048;8.732;2022-12-18T09:19:35;103164.25;;;-7.40;88.33
43745;BME280;29359;53.048;8.732;2022-12-18T09:21:37;103167.56;;;-7.31;87.53
43745;BME280;29359;53.048;8.732;2022-12-18T09:23:50;103170.75;;;-7.23;88.40
43745;BME280;29359;53.048;8.732;2022-12-18T09:25:58;103178.19;;;-7.16;88.49
43745;BME280;29359;53.048;8.732;2022-12-18T09:28:00;103177.00;;;-7.09;88.63
43745;BME280;29359;53.048;8.732;2022-12-18T09:30:03;103177.50;;;-7.03;88.48
43745;BME280;29359;53.048;8.732;2022-12-18T09:32:04;103186.56;;;-6.97;89.00
43745;BME280;29359;53.048;8.732;2022-12-18T09:34:07;103185.44;;;-6.90;88.33
43745;BME280;29359;53.048;8.732;2022-12-18T09:36:09;103173.84;;;-6.85;88.78
43745;BME280;29359;53.048;8.732;2022-12-18T09:38:15;103184.72;;;-6.77;88.88
43745;BME280;29359;53.048;8.732;2022-12-18T09:40:20;103179.06;;;-6.73;89.56
43745;BME280;29359;53.048;8.732;2022-12-18T09:42:22;103181.97;;;-6.69;89.54
43745;BME280;29359;53.048;8.732;2022-12-18T09:44:29;103184.25;;;-6.61;89.76
43745;BME280;29359;53.048;8.732;2022-12-18T09:46:37;103195.66;;;-6.58;89.85
43745;BME280;29359;53.048;8.732;2022-12-18T09:48:45;103199.50;;;-6.53;89.68
43745;BME280;29359;53.048;8.732;2022-12-18T09:50:49;103188.59;;;-6.50;89.71
43745;BME280;29359;53.048;8.732;2022-12-18T09:52:55;103200.13;;;-6.45;90.00
43745;BME280;29359;53.048;8.732;2022-12-18T09:55:10;103203.94;;;-6.40;89.98
43745;BME280;29359;53.048;8.732;2022-12-18T09:57:14;103207.66;;;-6.37;90.17
43745;BME280;29359;53.048;8.732;2022-12-18T09:59:26;103203.66;;;-6.33;90.30
43745;BME280;29359;53.048;8.732;2022-12-18T10:01:31;103194.50;;;-6.29;90.44
43745;BME280;29359;53.048;8.732;2022-12-18T10:03:44;103184.56;;;-6.25;90.34
43745;BME280;29359;53.048;8.732;2022-12-18T10:08:05;103180.13;;;-6.16;90.42
43745;BME280;29359;53.048;8.732;2022-12-18T10:10:38;103191.66;;;-6.11;90.29
43745;BME280;29359;53.048;8.732;2022-12-18T10:17:26;103180.34;;;-5.91;90.67
43745;BME280;29359;53.048;8.732;2022-12-18T10:20:02;103181.00;;;-5.82;90.68
43745;BME280;29359;53.048;8.732;2022-12-18T10:22:31;103176.44;;;-5.74;90.66
43745;BME280;29359;53.048;8.732;2022-12-18T10:26:53;103172.88;;;-5.64;90.95
43745;BME280;29359;53.048;8.732;2022-12-18T10:28:58;103162.16;;;-5.59;90.61
43745;BME280;29359;53.048;8.732;2022-12-18T10:31:07;103163.41;;;-5.54;90.49
43745;BME280;29359;53.048;8.732;2022-12-18T10:33:20;103155.22;;;-5.48;90.69
43745;BME280;29359;53.048;8.732;2022-12-18T10:35:25;103156.47;;;-5.43;90.34
43745;BME280;29359;53.048;8.732;2022-12-18T10:37:28;103155.00;;;-5.40;90.29
43745;BME280;29359;53.048;8.732;2022-12-18T10:39:30;103153.56;;;-5.36;89.74
43745;BME280;29359;53.048;8.732;2022-12-18T10:41:32;103154.66;;;-5.32;89.86
43745;BME280;29359;53.048;8.732;2022-12-18T10:43:38;103151.41;;;-5.30;89.61
43745;BME280;29359;53.048;8.732;2022-12-18T10:45:41;103145.72;;;-5.26;89.42
43745;BME280;29359;53.048;8.732;2022-12-18T10:47:49;103151.06;;;-5.23;89.40
43745;BME280;29359;53.048;8.732;2022-12-18T10:49:53;103138.56;;;-5.18;89.74
43745;BME280;29359;53.048;8.732;2022-12-18T10:52:07;103138.91;;;-5.14;89.87
43745;BME280;29359;53.048;8.732;2022-12-18T10:54:22;103144.38;;;-5.09;90.09
43745;BME280;29359;53.048;8.732;2022-12-18T10:56:26;103141.34;;;-5.03;89.99
43745;BME280;29359;53.048;8.732;2022-12-18T11:00:32;103133.25;;;-4.85;89.90
43745;BME280;29359;53.048;8.732;2022-12-18T11:02:37;103122.56;;;-4.78;90.01
43745;BME280;29359;53.048;8.732;2022-12-18T11:04:51;103113.94;;;-4.66;90.40
43745;BME280;29359;53.048;8.732;2022-12-18T11:07:02;103118.09;;;-4.44;90.47
43745;BME280;29359;53.048;8.732;2022-12-18T11:09:18;103108.72;;;-4.05;91.21
43745;BME280;29359;53.048;8.732;2022-12-18T11:11:22;103102.41;;;-3.45;92.09
43745;BME280;29359;53.048;8.732;2022-12-18T11:13:26;103091.59;;;-2.86;91.63
43745;BME280;29359;53.048;8.732;2022-12-18T11:15:30;103098.81;;;-2.24;89.80
43745;BME280;29359;53.048;8.732;2022-12-18T11:17:33;103096.13;;;-1.53;87.24
43745;BME280;29359;53.048;8.732;2022-12-18T11:19:37;103089.41;;;-0.88;83.59
43745;BME280;29359;53.048;8.732;2022-12-18T11:21:41;103086.25;;;-0.35;79.97
43745;BME280;29359;53.048;8.732;2022-12-18T11:23:50;103076.16;;;-0.13;77.20
43745;BME280;29359;53.048;8.732;2022-12-18T11:25:57;103080.59;;;0.06;75.98